Time;durP1;ratioP1;P1;durP2;ratioP2;P2;SDS_P1;SDS_P2;PMS_P1;PMS_P2;Temp;Humidity;BMP_temperature;BMP_pressure;BME280_temperature;BME280_humidity;BME280_pressure;Samples;Min_cycle;Max_cycle;Signal;HPM_P1;HPM_P2
2023/03/29 00:03:13;;;;;;;3.65;1.98;;;5.30;99.90;;;;;;7247483;32;20093;-55
2023/03/29 00:07:15;;;;;;;5.07;1.90;;;5.30;99.90;;;;;;7276389;32;20115;-55
2023/03/29 00:11:17;;;;;;;4.80;2.40;;;5.30;99.90;;;;;;7277589;32;20128;-55
2023/03/29 00:15:19;;;;;;;3.65;1.95;;;5.20;99.90;;;;;;7283795;32;20138;-55
2023/03/29 00:19:21;;;;;;;3.33;2.08;;;5.20;99.90;;;;;;7280344;32;20232;-55
2023/03/29 00:23:23;;;;;;;4.22;2.25;;;5.30;99.90;;;;;;7283227;32;20120;-55
2023/03/29 00:27:25;;;;;;;5.28;2.05;;;5.20;99.90;;;;;;7279659;32;20271;-55
2023/03/29 00:31:27;;;;;;;5.12;2.53;;;5.20;99.90;;;;;;7279789;32;20150;-54
2023/03/29 00:35:29;;;;;;;2.95;1.80;;;5.20;99.90;;;;;;7278971;32;20810;-54
2023/03/29 00:39:31;;;;;;;5.07;2.08;;;5.20;99.90;;;;;;7275439;32;21272;-55
2023/03/29 00:43:56;;;;;;;3.58;2.05;;;5.20;99.90;;;;;;7283106;32;20103;-55
2023/03/29 00:48:14;;;;;;;3.58;2.00;;;5.20;99.90;;;;;;7281626;32;20142;-54
2023/03/29 00:52:20;;;;;;;8.02;2.35;;;5.30;99.90;;;;;;7270018;32;20210;-54
2023/03/29 00:56:33;;;;;;;6.00;2.25;;;5.30;99.90;;;;;;7277248;32;20794;-54
2023/03/29 01:00:50;;;;;;;4.53;2.00;;;5.40;99.90;;;;;;7280090;32;20119;-55
2023/03/29 01:04:59;;;;;;;;;;;5.40;99.90;;;;;;7279964;32;20173;-55
2023/03/29 01:09:06;;;;;;;6.82;2.30;;;5.30;99.90;;;;;;7275154;32;20211;-55
2023/03/29 01:13:25;;;;;;;4.43;2.00;;;5.30;99.90;;;;;;7281158;32;23556;-55
2023/03/29 01:17:30;;;;;;;5.93;2.40;;;5.30;99.90;;;;;;7277708;32;20208;-55
2023/03/29 01:21:46;;;;;;;2.62;1.67;;;5.30;99.90;;;;;;7279571;32;20414;-55
2023/03/29 01:26:10;;;;;;;4.37;2.00;;;5.40;99.90;;;;;;7281001;32;20148;-55
2023/03/29 01:30:17;;;;;;;4.75;2.00;;;5.40;99.90;;;;;;7267016;32;20491;-54
2023/03/29 01:34:29;;;;;;;5.45;1.95;;;5.50;99.90;;;;;;7282387;32;20567;-55
2023/03/29 01:38:44;;;;;;;5.32;2.30;;;5.50;99.90;;;;;;7277064;32;20635;-55
2023/03/29 01:43:10;;;;;;;4.60;1.87;;;5.50;99.90;;;;;;7278734;32;20119;-55
2023/03/29 01:47:22;;;;;;;4.47;2.00;;;5.50;99.90;;;;;;7276192;32;20128;-55
2023/03/29 01:51:45;;;;;;;5.37;2.00;;;5.60;99.90;;;;;;7277654;32;20183;-55
2023/03/29 01:55:53;;;;;;;7.03;2.30;;;5.60;99.90;;;;;;7272964;32;20206;-55
2023/03/29 01:59:57;;;;;;;5.50;1.70;;;5.60;99.90;;;;;;7282698;32;20104;-55
2023/03/29 02:04:02;;;;;;;3.10;1.67;;;5.70;99.90;;;;;;7277091;32;20251;-54
2023/03/29 02:08:08;;;;;;;4.47;1.92;;;5.60;99.90;;;;;;7277367;32;20120;-55
2023/03/29 02:12:10;;;;;;;4.03;1.80;;;5.60;99.90;;;;;;7274861;32;20140;-54
2023/03/29 02:16:14;;;;;;;5.00;1.85;;;5.80;99.90;;;;;;7272896;32;20972;-55
2023/03/29 02:20:24;;;;;;;4.60;1.80;;;5.80;99.90;;;;;;7266486;32;20149;-55
2023/03/29 02:24:31;;;;;;;3.58;1.80;;;5.70;99.90;;;;;;7278311;32;20125;-55
2023/03/29 02:28:33;;;;;;;4.07;2.10;;;5.70;99.90;;;;;;7277844;32;20107;-55
2023/03/29 02:32:50;;;;;;;7.03;2.12;;;5.80;99.90;;;;;;7269226;32;20250;-55
2023/03/29 02:36:57;;;;;;;5.53;1.90;;;5.80;99.90;;;;;;7277501;32;20350;-55
2023/03/29 02:41:00;;;;;;;4.07;1.90;;;5.80;99.90;;;;;;7273260;32;20123;-55
2023/03/29 02:45:04;;;;;;;5.10;2.03;;;5.90;99.90;;;;;;7273920;32;20104;-55
2023/03/29 02:49:05;;;;;;;5.22;2.35;;;5.80;99.90;;;;;;7274028;32;20264;-55
2023/03/29 02:53:21;;;;;;;5.37;2.25;;;6.00;99.90;;;;;;7268088;32;20122;-55
2023/03/29 02:57:25;;;;;;;5.22;2.42;;;6.00;99.90;;;;;;7277815;32;20122;-55
2023/03/29 03:01:27;;;;;;;5.45;2.42;;;6.00;99.90;;;;;;7282292;32;20097;-55
2023/03/29 03:05:29;;;;;;;7.47;2.53;;;6.00;99.90;;;;;;7285514;32;20300;-55
2023/03/29 03:09:31;;;;;;;4.00;2.25;;;6.10;99.90;;;;;;7278546;32;20205;-55
2023/03/29 03:13:33;;;;;;;5.45;2.20;;;6.00;99.90;;;;;;7282216;32;20226;-54
2023/03/29 03:17:38;;;;;;;3.03;1.98;;;6.20;99.90;;;;;;7278383;32;20171;-55
2023/03/29 03:21:40;;;;;;;4.18;2.10;;;6.10;99.90;;;;;;7285883;32;20130;-55
2023/03/29 03:25:44;;;;;;;5.60;2.25;;;6.00;99.90;;;;;;7280315;32;20124;-55
2023/03/29 03:29:46;;;;;;;3.37;2.30;;;5.90;99.90;;;;;;7277766;32;20132;-54
2023/03/29 03:33:47;;;;;;;5.05;2.67;;;5.90;99.90;;;;;;7279189;32;20155;-55
2023/03/29 03:37:49;;;;;;;6.82;2.50;;;6.00;99.90;;;;;;7279472;32;20191;-55
2023/03/29 03:41:51;;;;;;;4.78;2.40;;;5.90;99.90;;;;;;7267569;32;20310;-55
2023/03/29 03:45:53;;;;;;;6.43;2.25;;;6.00;99.90;;;;;;7284660;32;20465;-55
2023/03/29 03:49:55;;;;;;;5.70;2.30;;;6.00;99.90;;;;;;7290281;32;20103;-55
2023/03/29 03:53:57;;;;;;;4.78;2.85;;;6.00;99.90;;;;;;7283692;32;20101;-55
2023/03/29 03:57:58;;;;;;;6.53;2.67;;;6.00;99.90;;;;;;7285846;32;20478;-55
2023/03/29 04:02:00;;;;;;;6.22;2.97;;;6.10;99.90;;;;;;7283559;32;20548;-55
2023/03/29 04:06:03;;;;;;;5.05;2.40;;;6.20;99.90;;;;;;7287818;32;20229;-55
2023/03/29 04:10:07;;;;;;;7.50;2.75;;;6.30;99.90;;;;;;7280452;32;20187;-55
2023/03/29 04:14:10;;;;;;;5.53;2.40;;;6.30;99.90;;;;;;7296035;32;20275;-55
2023/03/29 04:18:11;;;;;;;4.78;2.45;;;6.30;99.90;;;;;;7282267;32;20310;-55
2023/03/29 04:22:13;;;;;;;6.35;2.80;;;6.30;99.90;;;;;;7279311;32;20146;-55
2023/03/29 04:26:16;;;;;;;7.62;2.87;;;6.20;99.90;;;;;;7279790;32;20294;-55
2023/03/29 04:30:18;;;;;;;4.15;2.70;;;6.20;99.90;;;;;;7293755;32;20229;-55
2023/03/29 04:34:20;;;;;;;7.32;2.90;;;6.20;99.90;;;;;;7293482;32;20550;-54
2023/03/29 04:38:22;;;;;;;6.82;2.90;;;6.30;99.90;;;;;;7288068;32;20432;-55
2023/03/29 04:42:24;;;;;;;4.30;2.80;;;6.30;99.90;;;;;;7286379;32;20281;-55
2023/03/29 04:46:26;;;;;;;7.07;3.10;;;6.30;99.90;;;;;;7287021;32;20187;-55
2023/03/29 04:50:28;;;;;;;10.07;3.78;;;6.20;99.90;;;;;;7288854;32;20124;-55
2023/03/29 04:54:29;;;;;;;7.53;3.58;;;6.20;99.90;;;;;;7279028;32;20179;-55
2023/03/29 04:58:31;;;;;;;8.82;3.65;;;6.00;99.90;;;;;;7275889;32;20218;-55
2023/03/29 05:02:33;;;;;;;6.22;3.92;;;6.00;99.90;;;;;;7278611;32;20187;-55
2023/03/29 05:06:35;;;;;;;7.47;3.87;;;5.90;99.90;;;;;;7277470;32;20686;-55
2023/03/29 05:10:42;;;;;;;10.45;4.87;;;5.90;99.90;;;;;;7280736;32;20195;-55
2023/03/29 05:14:43;;;;;;;9.32;4.82;;;5.90;99.90;;;;;;7277754;32;20528;-55
2023/03/29 05:18:45;;;;;;;7.62;4.68;;;5.90;99.90;;;;;;7279825;32;20258;-56
2023/03/29 05:22:47;;;;;;;9.93;5.22;;;5.90;99.90;;;;;;7280968;32;20132;-56
2023/03/29 05:26:52;;;;;;;9.32;5.40;;;5.80;99.90;;;;;;7279000;32;20918;-56
2023/03/29 05:31:02;;;;;;;9.73;5.53;;;5.90;99.90;;;;;;7276665;32;20119;-56
2023/03/29 05:35:05;;;;;;;9.05;4.97;;;6.00;99.90;;;;;;7276078;32;20100;-56
2023/03/29 05:39:07;;;;;;;11.23;5.47;;;6.00;99.90;;;;;;7280549;32;20290;-56
2023/03/29 05:43:09;;;;;;;8.07;4.95;;;6.10;99.90;;;;;;7274355;32;20105;-57
2023/03/29 05:47:10;;;;;;;10.07;5.37;;;6.00;99.90;;;;;;7276966;32;20108;-56
2023/03/29 05:51:12;;;;;;;7.97;5.10;;;6.10;99.90;;;;;;7277420;32;20324;-56
2023/03/29 05:55:14;;;;;;;8.20;4.87;;;6.10;99.90;;;;;;7272770;32;20211;-56
2023/03/29 05:59:16;;;;;;;7.15;4.45;;;6.20;99.90;;;;;;7271250;32;20313;-58
2023/03/29 06:03:24;;;;;;;5.72;4.22;;;6.10;99.90;;;;;;7276337;32;20178;-57
2023/03/29 06:07:26;;;;;;;10.65;5.60;;;6.20;99.90;;;;;;7272208;32;20270;-57
2023/03/29 06:11:27;;;;;;;9.70;4.62;;;6.30;99.90;;;;;;7268924;32;20162;-57
2023/03/29 06:15:29;;;;;;;8.88;3.75;;;6.30;99.90;;;;;;7275972;32;20291;-56
2023/03/29 06:19:31;;;;;;;9.02;4.30;;;6.40;99.90;;;;;;7276532;32;20202;-55
2023/03/29 06:23:32;;;;;;;8.45;3.65;;;6.40;99.90;;;;;;7282442;32;20119;-55
2023/03/29 06:27:35;;;;;;;6.60;3.15;;;6.40;99.90;;;;;;7282996;32;20544;-55
2023/03/29 06:31:37;;;;;;;6.15;3.35;;;6.50;99.90;;;;;;7285364;32;20101;-55
2023/03/29 06:35:44;;;;;;;4.57;2.78;;;6.60;99.90;;;;;;7282777;32;20719;-56
2023/03/29 06:39:51;;;;;;;5.35;3.20;;;6.70;99.90;;;;;;7276367;32;20166;-56
2023/03/29 06:43:54;;;;;;;4.07;2.58;;;6.80;99.90;;;;;;7282526;32;20104;-55
2023/03/29 06:47:55;;;;;;;6.70;2.92;;;6.90;99.90;;;;;;7281963;32;20100;-56
2023/03/29 06:51:57;;;;;;;5.85;2.70;;;6.80;99.90;;;;;;7275995;32;20134;-56
2023/03/29 06:55:59;;;;;;;5.72;2.75;;;6.90;99.90;;;;;;7278052;32;20147;-56
2023/03/29 07:00:05;;;;;;;5.20;2.90;;;7.00;99.90;;;;;;7281575;32;20258;-56
2023/03/29 07:04:08;;;;;;;6.05;3.05;;;7.10;99.90;;;;;;7284605;32;20673;-56
2023/03/29 07:08:12;;;;;;;4.85;2.53;;;7.10;99.90;;;;;;7276123;32;20139;-57
2023/03/29 07:12:14;;;;;;;9.95;2.55;;;7.10;99.90;;;;;;7266969;32;20153;-56
2023/03/29 07:16:17;;;;;;;5.78;2.53;;;7.30;99.90;;;;;;7279606;32;20588;-55
2023/03/29 07:20:21;;;;;;;5.97;2.67;;;7.10;99.90;;;;;;7281436;32;20131;-56
2023/03/29 07:24:23;;;;;;;6.40;2.45;;;7.30;99.90;;;;;;7280446;32;20214;-56
2023/03/29 07:28:25;;;;;;;7.12;2.17;;;7.40;99.90;;;;;;7281991;32;20125;-56
2023/03/29 07:32:30;;;;;;;4.65;2.42;;;7.40;99.90;;;;;;7275420;32;20122;-56
2023/03/29 07:36:33;;;;;;;4.93;2.53;;;7.50;99.90;;;;;;7281758;32;20104;-56
2023/03/29 07:40:34;;;;;;;7.60;2.60;;;7.60;99.90;;;;;;7278521;32;20108;-56
2023/03/29 07:44:36;;;;;;;4.05;2.22;;;7.50;99.90;;;;;;7283019;32;20159;-56
2023/03/29 07:48:38;;;;;;;4.87;2.35;;;7.60;99.90;;;;;;7278214;32;20191;-57
2023/03/29 07:52:40;;;;;;;4.65;2.40;;;7.60;99.90;;;;;;7277338;32;20585;-55
2023/03/29 07:56:41;;;;;;;5.43;2.17;;;7.80;99.90;;;;;;7281847;32;20107;-55
2023/03/29 08:00:43;;;;;;;3.30;2.10;;;7.80;99.90;;;;;;7277634;32;20667;-55
2023/03/29 08:04:45;;;;;;;4.43;2.08;;;8.00;99.90;;;;;;7278032;32;20127;-56
2023/03/29 08:08:47;;;;;;;6.43;2.45;;;8.00;99.90;;;;;;7275857;32;20739;-56
2023/03/29 08:12:49;;;;;;;7.22;2.28;;;8.10;99.90;;;;;;7274123;32;20123;-55
2023/03/29 08:16:51;;;;;;;6.85;2.15;;;8.10;99.90;;;;;;7268772;32;20128;-56
2023/03/29 08:20:53;;;;;;;7.87;2.87;;;8.10;99.90;;;;;;7268409;32;20513;-55
2023/03/29 08:24:54;;;;;;;4.65;2.45;;;8.00;99.90;;;;;;7271942;32;20250;-56
2023/03/29 08:28:56;;;;;;;5.70;2.50;;;8.20;99.90;;;;;;7273734;32;20108;-56
2023/03/29 08:32:58;;;;;;;4.78;2.50;;;8.30;99.90;;;;;;7276674;32;20121;-55
2023/03/29 08:37:00;;;;;;;5.32;2.50;;;8.40;99.90;;;;;;7277976;32;20100;-55
2023/03/29 08:41:33;;;;;;;7.70;3.00;;;8.50;99.90;;;;;;7277472;32;20124;-56
2023/03/29 08:46:05;;;;;;;5.57;2.70;;;8.60;99.90;;;;;;7281786;32;20499;-57
2023/03/29 08:50:08;;;;;;;8.05;2.83;;;8.80;99.90;;;;;;7279849;32;20572;-56
2023/03/29 08:54:14;;;;;;;7.22;2.75;;;8.80;99.90;;;;;;7271844;32;20176;-56
2023/03/29 08:58:23;;;;;;;8.20;2.85;;;8.80;99.90;;;;;;7278342;32;20096;-56
2023/03/29 09:02:29;;;;;;;7.12;3.03;;;8.80;99.90;;;;;;7281989;32;20544;-57
2023/03/29 09:06:31;;;;;;;5.15;2.67;;;8.90;99.90;;;;;;7274874;32;20138;-56
2023/03/29 09:10:41;;;;;;;6.60;2.67;;;9.00;99.90;;;;;;7278442;32;20484;-56
2023/03/29 09:14:59;;;;;;;3.72;2.75;;;9.10;99.90;;;;;;7279960;32;20707;-57
2023/03/29 09:19:28;;;;;;;8.43;3.10;;;9.20;99.90;;;;;;7277053;32;20585;-56
2023/03/29 09:23:45;;;;;;;6.80;2.95;;;9.20;99.90;;;;;;7287783;32;20632;-56
2023/03/29 09:27:56;;;;;;;6.30;2.67;;;9.20;99.90;;;;;;7274979;32;20119;-56
2023/03/29 09:32:03;;;;;;;4.60;2.58;;;9.20;99.90;;;;;;7275745;32;20510;-56
2023/03/29 09:36:40;;;;;;;5.57;2.65;;;9.40;99.90;;;;;;7272159;32;20226;-56
2023/03/29 09:40:53;;;;;;;7.75;3.17;;;9.50;99.90;;;;;;7278710;32;20111;-56
2023/03/29 09:45:07;;;;;;;6.93;2.40;;;9.90;99.90;;;;;;7282365;32;20899;-55
2023/03/29 09:49:15;;;;;;;9.52;3.70;;;10.10;99.90;;;;;;7276373;32;20104;-56
2023/03/29 09:53:20;;;;;;;7.43;2.80;;;10.30;99.90;;;;;;7284357;32;20134;-56
2023/03/29 09:57:22;;;;;;;6.72;2.95;;;10.50;99.90;;;;;;7285139;32;20170;-56
2023/03/29 10:01:33;;;;;;;5.20;3.00;;;10.70;99.90;;;;;;7292003;32;20302;-56
2023/03/29 10:05:36;;;;;;;7.62;2.75;;;10.60;99.90;;;;;;7283785;32;20126;-56
2023/03/29 10:09:38;;;;;;;4.25;2.70;;;10.70;99.90;;;;;;7284661;32;20190;-56
2023/03/29 10:13:49;;;;;;;5.68;3.08;;;10.80;99.90;;;;;;7290190;32;20154;-56
2023/03/29 10:17:58;;;;;;;4.75;2.92;;;11.00;99.90;;;;;;7282069;32;20179;-56
2023/03/29 10:22:06;;;;;;;7.62;2.80;;;11.40;99.90;;;;;;7285962;32;20127;-56
2023/03/29 10:26:30;;;;;;;7.03;3.10;;;11.70;99.90;;;;;;7281034;32;20127;-56
2023/03/29 10:30:36;;;;;;;5.18;3.03;;;12.00;99.90;;;;;;7284113;32;20132;-56
2023/03/29 10:34:38;;;;;;;5.53;3.00;;;11.90;99.90;;;;;;7283507;32;20124;-57
2023/03/29 10:38:40;;;;;;;5.40;2.47;;;12.20;99.90;;;;;;7281596;32;20446;-56
2023/03/29 10:42:48;;;;;;;6.05;2.80;;;12.50;99.90;;;;;;7279336;32;20266;-57
2023/03/29 10:46:50;;;;;;;6.20;3.00;;;13.00;99.90;;;;;;7281515;32;20096;-57
2023/03/29 10:50:52;;;;;;;4.72;3.03;;;13.30;99.90;;;;;;7279801;32;20368;-56
2023/03/29 10:54:55;;;;;;;7.60;3.03;;;13.60;99.90;;;;;;7281042;32;20153;-56
2023/03/29 10:59:08;;;;;;;6.55;3.03;;;13.80;99.90;;;;;;7280390;32;20108;-56
2023/03/29 11:03:32;;;;;;;6.95;2.53;;;14.00;99.90;;;;;;7287027;32;20150;-56
2023/03/29 11:07:57;;;;;;;6.50;2.95;;;14.40;99.90;;;;;;7284204;32;20125;-57
2023/03/29 11:12:03;;;;;;;5.00;2.78;;;14.70;99.90;;;;;;7288448;32;20502;-56
2023/03/29 11:16:20;;;;;;;5.30;2.70;;;15.40;99.90;;;;;;7278458;32;20108;-56
2023/03/29 11:20:31;;;;;;;7.00;2.72;;;16.80;99.90;;;;;;7280751;32;20495;-55
2023/03/29 11:25:11;;;;;;;9.27;3.17;;;18.20;99.90;;;;;;7278943;32;20194;-56
2023/03/29 11:29:26;;;;;;;5.53;2.70;;;17.50;99.90;;;;;;7281508;32;20117;-56
2023/03/29 11:33:58;;;;;;;5.00;2.72;;;16.00;99.90;;;;;;7278116;32;20509;-56
2023/03/29 11:38:17;;;;;;;5.68;3.42;;;15.60;99.90;;;;;;7280489;32;20150;-55
2023/03/29 11:42:28;;;;;;;7.00;3.12;;;14.90;99.90;;;;;;7282546;32;20126;-55
2023/03/29 11:46:41;;;;;;;7.10;3.37;;;14.00;99.90;;;;;;7278477;32;20502;-57
2023/03/29 11:50:59;;;;;;;5.95;3.35;;;14.00;99.90;;;;;;7279761;32;20138;-55
2023/03/29 11:55:06;;;;;;;9.07;3.05;;;13.90;99.90;;;;;;7283495;32;20167;-56
2023/03/29 11:59:19;;;;;;;6.97;3.20;;;13.70;99.90;;;;;;7280230;32;20133;-55
2023/03/29 12:03:50;;;;;;;6.90;3.22;;;13.60;99.90;;;;;;7285046;32;20799;-56
2023/03/29 12:08:10;;;;;;;5.95;3.12;;;13.50;99.90;;;;;;7282344;32;20478;-57
2023/03/29 12:12:27;;;;;;;8.80;3.53;;;13.30;99.90;;;;;;7279660;32;20561;-56
2023/03/29 12:16:29;;;;;;;6.25;3.60;;;13.60;99.90;;;;;;7274858;32;20100;-56
2023/03/29 12:20:35;;;;;;;6.68;3.30;;;13.90;99.90;;;;;;7285090;32;20528;-56
2023/03/29 12:24:41;;;;;;;5.90;3.15;;;14.00;99.90;;;;;;7284019;32;20215;-56
2023/03/29 12:29:17;;;;;;;5.87;3.08;;;13.90;99.90;;;;;;7280119;32;20702;-57
2023/03/29 12:33:35;;;;;;;6.00;3.00;;;13.90;99.90;;;;;;7279776;32;20250;-55
2023/03/29 12:37:36;;;;;;;;;;;14.00;99.90;;;;;;7286666;32;20561;-55
2023/03/29 12:41:40;;;;;;;5.50;2.92;;;14.30;99.90;;;;;;7281355;32;20108;-55
2023/03/29 12:45:47;;;;;;;6.60;2.80;;;14.30;99.90;;;;;;7276976;32;20620;-56
2023/03/29 12:50:02;;;;;;;8.35;2.58;;;14.50;99.90;;;;;;7275732;32;20123;-55
2023/03/29 12:54:22;;;;;;;6.95;2.92;;;14.60;99.90;;;;;;7277502;32;20096;-56
2023/03/29 12:58:41;;;;;;;6.25;2.75;;;14.60;99.90;;;;;;7275053;32;20104;-56
2023/03/29 13:02:44;;;;;;;6.47;2.78;;;14.50;99.90;;;;;;7278382;32;20118;-55
2023/03/29 13:06:46;;;;;;;6.10;2.00;;;14.50;99.90;;;;;;7282690;32;20149;-55
2023/03/29 13:10:53;;;;;;;6.25;1.90;;;14.60;99.90;;;;;;7279163;32;20096;-55
2023/03/29 13:14:56;;;;;;;;;;;14.80;99.90;;;;;;7278595;32;20635;-55
2023/03/29 13:19:33;;;;;;;4.32;1.50;;;14.90;99.90;;;;;;7277542;32;20011;-55
2023/03/29 13:23:35;;;;;;;5.65;1.95;;;14.80;99.90;;;;;;7265887;32;20358;-56
2023/03/29 13:27:57;;;;;;;5.53;1.75;;;14.90;99.90;;;;;;7289048;32;20489;-56
2023/03/29 13:32:12;;;;;;;5.20;1.60;;;15.00;99.90;;;;;;7280028;32;20124;-55
2023/03/29 13:36:35;;;;;;;5.25;1.60;;;15.00;99.90;;;;;;7279886;32;20229;-56
2023/03/29 13:40:42;;;;;;;4.62;1.70;;;15.00;99.90;;;;;;7276757;32;20183;-56
2023/03/29 13:44:47;;;;;;;5.15;2.00;;;15.00;99.90;;;;;;7274738;32;20384;-56
2023/03/29 13:49:14;;;;;;;4.12;1.67;;;15.10;99.90;;;;;;7279085;32;20154;-56
2023/03/29 13:53:21;;;;;;;3.58;1.70;;;15.40;99.90;;;;;;7274372;32;20521;-56
2023/03/29 13:57:40;;;;;;;4.18;2.03;;;15.40;99.90;;;;;;7277176;32;20122;-57
2023/03/29 14:01:56;;;;;;;5.12;1.70;;;15.30;99.90;;;;;;7281315;32;20096;-56
2023/03/29 14:06:00;;;;;;;5.68;1.87;;;15.50;99.90;;;;;;7282731;32;20225;-56
2023/03/29 14:10:03;;;;;;;5.25;2.50;;;15.60;99.90;;;;;;7277029;32;20122;-56
2023/03/29 14:14:07;;;;;;;4.35;1.35;;;15.50;99.90;;;;;;7262666;32;20199;-56
2023/03/29 14:18:11;;;;;;;4.07;0.85;;;15.50;99.90;;;;;;7273040;32;20108;-56
2023/03/29 14:22:15;;;;;;;3.08;1.00;;;15.50;99.90;;;;;;7281505;32;20134;-56
2023/03/29 14:26:20;;;;;;;3.72;0.80;;;15.50;99.90;;;;;;7283978;32;20096;-56
2023/03/29 14:30:27;;;;;;;2.65;0.90;;;15.40;99.90;;;;;;7284544;32;20241;-56
2023/03/29 14:34:29;;;;;;;2.00;0.75;;;15.40;99.90;;;;;;7283065;32;20118;-56
2023/03/29 14:38:31;;;;;;;2.10;0.90;;;15.40;99.90;;;;;;7280547;32;20963;-56
2023/03/29 14:42:33;;;;;;;5.53;1.20;;;15.50;99.90;;;;;;7288277;32;20293;-56
2023/03/29 14:46:35;;;;;;;4.60;1.58;;;15.50;99.90;;;;;;7283028;32;20255;-56
2023/03/29 14:50:37;;;;;;;5.43;3.03;;;15.60;99.90;;;;;;7285620;32;20753;-56
2023/03/29 14:54:43;;;;;;;5.87;1.70;;;15.60;99.90;;;;;;7287973;32;20745;-57
2023/03/29 14:58:45;;;;;;;2.25;1.30;;;15.60;99.90;;;;;;7277213;32;20100;-56
2023/03/29 15:02:59;;;;;;;3.45;1.50;;;15.50;99.90;;;;;;7277553;32;20682;-56
2023/03/29 15:07:03;;;;;;;4.18;1.30;;;15.60;99.90;;;;;;7279480;32;20243;-57
2023/03/29 15:11:20;;;;;;;7.10;1.50;;;15.60;99.90;;;;;;7280209;32;20191;-57
2023/03/29 15:15:24;;;;;;;4.12;1.40;;;15.50;99.90;;;;;;7285721;32;20331;-56
2023/03/29 15:19:26;;;;;;;4.25;1.75;;;15.40;99.90;;;;;;7279012;32;20512;-56
2023/03/29 15:23:36;;;;;;;3.50;1.52;;;15.40;99.90;;;;;;7273811;32;20113;-56
2023/03/29 15:27:41;;;;;;;4.90;1.60;;;15.40;99.90;;;;;;7275196;32;20108;-57
2023/03/29 15:31:54;;;;;;;4.78;1.62;;;15.60;99.90;;;;;;7279866;32;20126;-57
2023/03/29 15:35:56;;;;;;;5.50;1.50;;;15.30;99.90;;;;;;7276808;32;20184;-56
2023/03/29 15:39:58;;;;;;;3.67;1.20;;;15.20;99.90;;;;;;7281390;32;20215;-57
2023/03/29 15:44:00;;;;;;;3.40;1.30;;;15.10;99.90;;;;;;7287729;32;20435;-56
2023/03/29 15:48:07;;;;;;;4.97;1.50;;;15.00;99.90;;;;;;7281810;32;20483;-56
2023/03/29 15:52:09;;;;;;;3.85;1.52;;;15.00;99.90;;;;;;7279275;32;20155;-56
2023/03/29 15:56:16;;;;;;;3.25;1.52;;;14.90;99.90;;;;;;7280179;32;20179;-56
2023/03/29 16:00:19;;;;;;;4.32;1.48;;;14.80;99.90;;;;;;7271405;32;20107;-56
2023/03/29 16:04:21;;;;;;;2.92;1.30;;;14.70;99.90;;;;;;7275815;32;20120;-62
2023/03/29 16:08:24;;;;;;;4.12;1.20;;;14.80;99.90;;;;;;7281636;32;20211;-55
2023/03/29 16:12:25;;;;;;;4.12;1.33;;;15.00;99.90;;;;;;7278441;32;20101;-56
2023/03/29 16:16:27;;;;;;;5.57;1.35;;;15.00;99.90;;;;;;7275220;32;20249;-56
2023/03/29 16:20:29;;;;;;;2.72;1.20;;;15.00;99.90;;;;;;7277420;32;20127;-56
2023/03/29 16:24:32;;;;;;;2.00;1.20;;;15.00;99.90;;;;;;7276102;32;20203;-56
2023/03/29 16:28:34;;;;;;;7.20;1.83;;;15.00;99.90;;;;;;7284265;32;20109;-56
2023/03/29 16:32:37;;;;;;;4.93;1.45;;;15.00;99.90;;;;;;7278556;32;20126;-56
2023/03/29 16:36:39;;;;;;;3.37;1.70;;;15.00;99.90;;;;;;7281016;32;20257;-56
2023/03/29 16:40:42;;;;;;;2.62;1.20;;;14.80;99.90;;;;;;7274737;32;20097;-56
2023/03/29 16:44:44;;;;;;;4.57;1.55;;;14.80;99.90;;;;;;7278945;32;20100;-56
2023/03/29 16:48:47;;;;;;;3.40;1.30;;;14.70;99.90;;;;;;7279828;32;20110;-57
2023/03/29 16:52:51;;;;;;;3.65;1.40;;;14.70;99.90;;;;;;7275051;32;20222;-56
2023/03/29 16:56:53;;;;;;;3.72;1.33;;;14.80;99.90;;;;;;7279565;32;20667;-55
2023/03/29 17:00:55;;;;;;;4.30;1.30;;;14.60;99.90;;;;;;7280982;32;20213;-56
2023/03/29 17:04:57;;;;;;;3.67;1.00;;;14.60;99.90;;;;;;7266851;32;20131;-55
2023/03/29 17:08:59;;;;;;;5.97;1.48;;;14.50;99.90;;;;;;7280520;32;20487;-55
2023/03/29 17:13:01;;;;;;;4.05;1.40;;;14.60;99.90;;;;;;7282637;32;20586;-56
2023/03/29 17:17:03;;;;;;;4.32;1.30;;;14.60;99.90;;;;;;7278227;32;20126;-55
2023/03/29 17:21:05;;;;;;;4.22;1.58;;;14.70;99.90;;;;;;7279620;32;20278;-56
2023/03/29 17:25:08;;;;;;;4.82;1.55;;;14.50;99.90;;;;;;7278794;32;20165;-55
2023/03/29 17:29:09;;;;;;;3.87;1.40;;;14.50;99.90;;;;;;7277941;32;20139;-56
2023/03/29 17:33:12;;;;;;;3.78;1.40;;;14.50;99.90;;;;;;7277790;32;20294;-55
2023/03/29 17:37:14;;;;;;;5.37;1.98;;;14.50;99.90;;;;;;7279618;32;20298;-55
2023/03/29 17:41:16;;;;;;;5.28;1.75;;;14.60;99.90;;;;;;7280797;32;20150;-57
2023/03/29 17:45:18;;;;;;;6.40;1.90;;;14.40;99.90;;;;;;7276531;32;20239;-56
2023/03/29 17:49:20;;;;;;;6.12;2.67;;;14.40;99.90;;;;;;7276087;32;20138;-57
2023/03/29 17:53:22;;;;;;;4.32;1.73;;;14.30;99.90;;;;;;7282369;32;20138;-55
2023/03/29 17:57:24;;;;;;;5.72;1.95;;;14.20;99.90;;;;;;7277534;32;20340;-55
2023/03/29 18:01:26;;;;;;;5.82;2.10;;;14.10;99.90;;;;;;7279395;32;20983;-56
2023/03/29 18:05:27;;;;;;;4.80;1.92;;;13.90;99.90;;;;;;7277112;32;20190;-56
2023/03/29 18:09:29;;;;;;;4.93;1.95;;;13.80;99.90;;;;;;7275724;32;20227;-55
2023/03/29 18:13:31;;;;;;;3.40;1.65;;;13.70;99.90;;;;;;7271028;32;20148;-62
2023/03/29 18:17:34;;;;;;;5.10;2.20;;;13.70;99.90;;;;;;7278269;32;20226;-61
2023/03/29 18:21:36;;;;;;;3.05;2.00;;;13.70;99.90;;;;;;7278025;32;21622;-60
2023/03/29 18:25:38;;;;;;;4.20;1.83;;;13.90;99.90;;;;;;7280089;32;20182;-55
2023/03/29 18:29:39;;;;;;;6.32;2.17;;;14.00;99.90;;;;;;7279215;32;20171;-55
2023/03/29 18:33:41;;;;;;;4.93;2.10;;;13.80;99.90;;;;;;7277197;32;20795;-55
2023/03/29 18:37:43;;;;;;;4.18;1.85;;;13.70;99.90;;;;;;7280361;32;20452;-54
2023/03/29 18:41:45;;;;;;;4.70;2.05;;;13.70;99.90;;;;;;7280747;32;20163;-55
2023/03/29 18:45:47;;;;;;;6.12;2.00;;;13.90;99.90;;;;;;7283730;32;20616;-55
2023/03/29 18:49:49;;;;;;;5.00;1.92;;;13.70;99.90;;;;;;7280384;32;20097;-55
2023/03/29 18:53:51;;;;;;;4.70;2.20;;;13.80;99.90;;;;;;7281267;32;20413;-55
2023/03/29 18:57:53;;;;;;;4.72;2.17;;;13.60;99.90;;;;;;7277055;32;20122;-55
2023/03/29 19:01:55;;;;;;;7.10;1.90;;;13.70;99.90;;;;;;7284371;32;20221;-55
2023/03/29 19:05:57;;;;;;;5.30;2.20;;;13.60;99.90;;;;;;7284300;32;20565;-54
2023/03/29 19:09:58;;;;;;;5.05;1.80;;;13.70;99.90;;;;;;7287250;32;20175;-54
2023/03/29 19:14:00;;;;;;;4.15;1.65;;;13.60;99.90;;;;;;7286008;32;20203;-55
2023/03/29 19:18:02;;;;;;;4.15;1.60;;;13.60;99.90;;;;;;7281198;32;20182;-55
2023/03/29 19:22:04;;;;;;;2.70;1.50;;;13.70;99.90;;;;;;7289145;32;20359;-55
2023/03/29 19:26:05;;;;;;;4.37;1.70;;;13.60;99.90;;;;;;7286835;32;20472;-55
2023/03/29 19:30:08;;;;;;;5.28;2.28;;;13.50;99.90;;;;;;7279440;32;20322;-55
2023/03/29 19:34:10;;;;;;;3.70;1.60;;;13.40;99.90;;;;;;7287819;32;20544;-55
2023/03/29 19:38:12;;;;;;;3.62;1.60;;;13.40;99.90;;;;;;7283950;32;20461;-55
2023/03/29 19:42:14;;;;;;;3.33;1.58;;;13.40;99.90;;;;;;7281935;32;20238;-54
2023/03/29 19:46:15;;;;;;;3.08;1.60;;;13.40;99.90;;;;;;7277969;32;20257;-55
2023/03/29 19:50:17;;;;;;;3.03;1.50;;;13.30;99.90;;;;;;7282412;32;20103;-55
2023/03/29 19:54:20;;;;;;;6.22;1.65;;;13.30;99.90;;;;;;7289626;32;20840;-55
2023/03/29 19:58:21;;;;;;;5.72;2.12;;;13.10;99.90;;;;;;7285131;32;20239;-55
2023/03/29 20:02:23;;;;;;;3.28;1.67;;;13.10;99.90;;;;;;7287816;32;20130;-54
2023/03/29 20:06:25;;;;;;;6.05;1.80;;;13.20;99.90;;;;;;7284831;32;20103;-54
2023/03/29 20:10:26;;;;;;;4.40;1.80;;;13.10;99.90;;;;;;7282978;32;20135;-55
2023/03/29 20:14:28;;;;;;;7.10;1.98;;;13.20;99.90;;;;;;7276873;32;20824;-55
2023/03/29 20:18:30;;;;;;;5.47;1.87;;;13.00;99.90;;;;;;7281757;32;20123;-54
2023/03/29 20:22:32;;;;;;;4.15;1.90;;;13.10;99.90;;;;;;7282260;32;20222;-54
2023/03/29 20:26:35;;;;;;;5.85;2.37;;;13.00;99.90;;;;;;7285085;32;20490;-55
2023/03/29 20:30:38;;;;;;;5.25;2.22;;;12.90;99.90;;;;;;7288588;32;20317;-55
2023/03/29 20:34:40;;;;;;;6.78;2.40;;;12.90;99.90;;;;;;7280933;32;20188;-55
2023/03/29 20:38:41;;;;;;;5.80;2.53;;;13.00;99.90;;;;;;7289938;32;20150;-55
2023/03/29 20:42:45;;;;;;;6.32;2.65;;;12.90;99.90;;;;;;7281932;32;20103;-55
2023/03/29 20:47:00;;;;;;;5.62;2.42;;;12.90;99.90;;;;;;7283449;32;20577;-55
2023/03/29 20:51:09;;;;;;;5.95;2.72;;;12.80;99.90;;;;;;7279202;32;20096;-54
2023/03/29 20:55:12;;;;;;;8.15;2.87;;;12.80;99.90;;;;;;7282328;32;20469;-55
2023/03/29 20:59:14;;;;;;;8.07;2.78;;;12.70;99.90;;;;;;7287326;32;20116;-55
2023/03/29 21:03:16;;;;;;;6.85;2.78;;;12.70;99.90;;;;;;7284933;32;20245;-55
2023/03/29 21:07:20;;;;;;;9.75;2.40;;;12.70;99.90;;;;;;7279657;32;20173;-54
2023/03/29 21:11:22;;;;;;;5.78;2.17;;;12.50;99.90;;;;;;7272665;32;20503;-54
2023/03/29 21:15:23;;;;;;;4.75;2.03;;;12.60;99.90;;;;;;7276168;32;20221;-55
2023/03/29 21:19:26;;;;;;;3.53;2.10;;;12.60;99.90;;;;;;7273108;32;20104;-55
2023/03/29 21:23:27;;;;;;;9.00;2.50;;;12.60;99.90;;;;;;7276154;32;20209;-55
2023/03/29 21:27:29;;;;;;;5.45;2.25;;;12.60;99.90;;;;;;7280563;32;20129;-54
2023/03/29 21:31:31;;;;;;;6.53;2.60;;;12.60;99.90;;;;;;7271612;32;20372;-55